createdAt,value
2022-10-05T00:00:12.568Z,14.19
2022-10-05T00:02:41.588Z,14.28
2022-10-05T00:05:15.746Z,14.31
2022-10-05T00:07:46.702Z,14.09
2022-10-05T00:10:17.218Z,14.24
2022-10-05T00:12:45.480Z,14.03
2022-10-05T00:15:13.810Z,14.15
2022-10-05T00:17:43.253Z,13.96
2022-10-05T00:20:21.860Z,13.88
2022-10-05T00:22:49.633Z,13.77
2022-10-05T00:25:17.814Z,13.99
2022-10-05T00:27:55.232Z,14.23
2022-10-05T00:30:23.295Z,14.17
2022-10-05T00:32:57.259Z,13.74
2022-10-05T00:35:28.308Z,13.85
2022-10-05T00:37:56.543Z,13.47
2022-10-05T00:40:44.852Z,13.40
2022-10-05T00:43:17.176Z,13.57
2022-10-05T00:45:45.056Z,13.37
2022-10-05T00:48:16.366Z,13.21
2022-10-05T00:50:50.387Z,13.33
2022-10-05T00:53:21.341Z,13.26
2022-10-05T00:55:51.647Z,13.78
2022-10-05T00:58:24.553Z,13.55
2022-10-05T01:00:54.021Z,13.84
2022-10-05T01:03:24.472Z,13.61
2022-10-05T01:05:55.222Z,13.41
2022-10-05T01:08:26.145Z,13.30
2022-10-05T01:10:57.870Z,13.44
2022-10-05T01:13:29.447Z,13.60
2022-10-05T01:16:00.463Z,13.46
2022-10-05T01:18:31.260Z,13.54
2022-10-05T01:21:00.174Z,13.78
2022-10-05T01:23:35.801Z,13.84
2022-10-05T01:26:08.833Z,13.33
2022-10-05T01:28:39.003Z,13.33
2022-10-05T01:31:13.295Z,13.38
2022-10-05T01:33:42.126Z,13.38
2022-10-05T01:36:11.092Z,13.23
2022-10-05T01:38:43.264Z,13.28
2022-10-05T01:41:16.674Z,13.62
2022-10-05T01:43:47.677Z,13.54
2022-10-05T01:46:18.220Z,13.24
2022-10-05T01:48:49.129Z,13.29
2022-10-05T01:51:17.726Z,12.97
2022-10-05T01:53:47.852Z,12.67
2022-10-05T01:56:19.038Z,12.51
2022-10-05T01:58:49.839Z,12.74
2022-10-05T02:01:18.418Z,12.65
2022-10-05T02:03:46.758Z,12.44
2022-10-05T02:06:14.974Z,12.53
2022-10-05T02:08:44.718Z,12.71
2022-10-05T02:11:15.883Z,12.80
2022-10-05T02:13:44.703Z,13.01
2022-10-05T02:16:17.001Z,13.19
2022-10-05T02:18:46.374Z,13.14
2022-10-05T02:21:16.988Z,13.11
2022-10-05T02:23:45.184Z,13.33
2022-10-05T02:26:13.182Z,12.67
2022-10-05T02:28:41.282Z,13.10
2022-10-05T02:31:09.771Z,12.91
2022-10-05T02:33:50.044Z,12.93
2022-10-05T02:36:18.200Z,13.10
2022-10-05T02:38:51.422Z,13.06
2022-10-05T02:41:22.372Z,13.27
2022-10-05T02:43:52.160Z,13.25
2022-10-05T02:46:26.658Z,13.52
2022-10-05T02:49:20.523Z,13.81
2022-10-05T02:51:48.202Z,14.11
2022-10-05T02:54:16.960Z,13.25
2022-10-05T02:56:47.123Z,13.26
2022-10-05T02:59:20.859Z,13.43
2022-10-05T03:01:52.562Z,13.02
2022-10-05T03:04:27.252Z,13.30
2022-10-05T03:06:58.520Z,12.86
2022-10-05T03:09:26.409Z,13.17
2022-10-05T03:11:57.684Z,13.35
2022-10-05T03:14:27.070Z,13.36
2022-10-05T03:17:01.556Z,13.12
2022-10-05T03:19:38.181Z,13.32
2022-10-05T03:22:07.549Z,13.93
2022-10-05T03:24:50.600Z,13.84
2022-10-05T03:27:27.482Z,14.08
2022-10-05T03:30:01.901Z,14.06
2022-10-05T03:32:32.717Z,14.07
2022-10-05T03:35:04.259Z,14.13
2022-10-05T03:37:36.653Z,13.68
2022-10-05T03:40:04.845Z,13.86
2022-10-05T03:42:34.744Z,14.13
2022-10-05T03:45:03.522Z,13.78
2022-10-05T03:47:38.023Z,13.69
2022-10-05T03:50:13.078Z,13.89
2022-10-05T03:52:43.689Z,13.95
2022-10-05T03:55:16.531Z,13.76
2022-10-05T03:57:44.440Z,14.12
2022-10-05T04:00:13.838Z,13.69
2022-10-05T04:02:42.639Z,13.72
2022-10-05T04:05:15.402Z,13.76
2022-10-05T04:07:44.513Z,14.02
2022-10-05T04:10:25.925Z,13.99
2022-10-05T04:12:56.491Z,14.08
2022-10-05T04:15:25.694Z,13.99
2022-10-05T04:17:53.784Z,13.76
2022-10-05T04:20:23.864Z,13.74
2022-10-05T04:22:55.011Z,13.72
2022-10-05T04:25:26.212Z,13.35
2022-10-05T04:27:54.246Z,13.15
2022-10-05T04:30:22.343Z,13.05
2022-10-05T04:32:52.829Z,12.59
2022-10-05T04:35:25.828Z,12.57
2022-10-05T04:37:55.587Z,12.61
2022-10-05T04:40:28.105Z,12.42
2022-10-05T04:42:57.632Z,12.64
2022-10-05T04:45:28.776Z,12.83
2022-10-05T04:48:03.015Z,12.51
2022-10-05T04:50:35.927Z,12.68
2022-10-05T04:53:06.652Z,12.62
2022-10-05T04:55:36.916Z,12.69
2022-10-05T04:58:10.598Z,12.88
2022-10-05T05:00:41.805Z,12.93
2022-10-05T05:03:16.026Z,13.49
2022-10-05T05:06:12.131Z,13.05
2022-10-05T05:08:40.369Z,13.04
2022-10-05T05:11:16.190Z,12.74
2022-10-05T05:14:01.863Z,12.51
2022-10-05T05:16:33.170Z,12.66
2022-10-05T05:19:35.330Z,12.64
2022-10-05T05:22:06.034Z,13.12
2022-10-05T05:24:42.551Z,12.97
2022-10-05T05:27:31.137Z,12.70
2022-10-05T05:30:02.311Z,12.43
2022-10-05T05:32:33.750Z,12.88
2022-10-05T05:35:05.934Z,12.85
2022-10-05T05:37:40.347Z,12.94
2022-10-05T05:40:12.898Z,13.12
2022-10-05T05:42:45.400Z,12.99
2022-10-05T05:45:19.984Z,13.00
2022-10-05T05:47:54.363Z,12.88
2022-10-05T05:50:30.681Z,13.01
2022-10-05T05:53:01.451Z,13.17
2022-10-05T05:55:31.039Z,12.97
2022-10-05T05:58:00.093Z,12.68
2022-10-05T06:00:28.129Z,13.16
2022-10-05T06:02:56.858Z,12.99
2022-10-05T06:05:29.179Z,13.50
2022-10-05T06:07:58.297Z,13.21
2022-10-05T06:10:29.643Z,13.05
2022-10-05T06:13:01.578Z,12.05
2022-10-05T06:15:30.314Z,13.36
2022-10-05T06:18:01.941Z,13.40
2022-10-05T06:20:30.188Z,12.13
2022-10-05T06:23:03.326Z,14.03
2022-10-05T06:25:34.650Z,12.77
2022-10-05T06:28:11.840Z,14.01
2022-10-05T06:30:44.870Z,14.30
2022-10-05T06:33:17.688Z,14.54
2022-10-05T06:35:52.137Z,14.59
2022-10-05T06:38:28.733Z,12.66
2022-10-05T06:41:04.326Z,14.24
2022-10-05T06:43:37.629Z,14.89
2022-10-05T06:46:09.378Z,15.05
2022-10-05T06:48:46.184Z,14.96
2022-10-05T06:51:18.691Z,15.36
2022-10-05T06:53:50.144Z,14.90
2022-10-05T06:56:20.290Z,15.51
2022-10-05T06:58:53.281Z,15.44
2022-10-05T07:01:25.294Z,14.87
2022-10-05T07:03:57.490Z,15.33
2022-10-05T07:06:25.902Z,15.36
2022-10-05T07:08:55.876Z,15.15
2022-10-05T07:11:31.893Z,15.32
2022-10-05T07:14:05.738Z,15.12
2022-10-05T07:16:39.211Z,15.53
2022-10-05T07:19:12.633Z,15.31
2022-10-05T07:21:43.635Z,15.49
2022-10-05T07:24:14.257Z,16.19
2022-10-05T07:26:52.942Z,15.66
2022-10-05T07:29:25.208Z,16.31
2022-10-05T07:32:02.057Z,15.88
2022-10-05T07:34:33.302Z,16.09
2022-10-05T07:37:19.186Z,16.35
2022-10-05T07:40:00.126Z,16.49
2022-10-05T07:42:38.884Z,16.83
2022-10-05T07:45:15.404Z,16.28
2022-10-05T07:47:45.091Z,16.62
2022-10-05T07:50:20.585Z,16.69
2022-10-05T07:52:50.026Z,16.97
2022-10-05T07:55:21.166Z,17.11
2022-10-05T07:57:53.697Z,17.29
2022-10-05T08:00:24.396Z,17.35
2022-10-05T08:02:52.530Z,17.28
2022-10-05T08:05:21.800Z,17.09
2022-10-05T08:07:51.866Z,17.02
2022-10-05T08:10:23.506Z,16.99
2022-10-05T08:13:01.834Z,17.50
2022-10-05T08:15:33.289Z,17.24
2022-10-05T08:18:01.774Z,17.34
2022-10-05T08:20:38.632Z,17.41
2022-10-05T08:23:14.472Z,17.41
2022-10-05T08:25:43.269Z,17.28
2022-10-05T08:28:14.954Z,17.46
2022-10-05T08:30:54.301Z,17.57
2022-10-05T08:33:22.629Z,17.31
2022-10-05T08:35:52.044Z,17.86
2022-10-05T08:38:23.014Z,17.96
2022-10-05T08:41:11.472Z,18.13
2022-10-05T08:43:49.505Z,18.25
2022-10-05T08:46:23.105Z,18.11
2022-10-05T08:49:11.242Z,18.10
2022-10-05T08:51:46.428Z,18.25
2022-10-05T08:54:20.079Z,18.42
2022-10-05T08:56:50.614Z,18.13
2022-10-05T08:59:23.935Z,18.37
2022-10-05T09:02:06.979Z,18.54
2022-10-05T09:04:39.660Z,18.52
2022-10-05T09:07:13.830Z,18.98
2022-10-05T09:10:07.642Z,19.04
2022-10-05T09:12:47.550Z,19.18
2022-10-05T09:15:31.568Z,18.62
2022-10-05T09:18:20.026Z,18.76
2022-10-05T09:23:38.056Z,19.22
2022-10-05T09:26:08.866Z,19.31
2022-10-05T09:28:39.147Z,19.37
2022-10-05T09:31:14.450Z,19.66
2022-10-05T09:33:54.086Z,19.40
2022-10-05T09:36:31.945Z,19.31
2022-10-05T09:39:32.573Z,19.70
2022-10-05T09:42:05.996Z,19.84
2022-10-05T09:44:55.043Z,19.45
2022-10-05T09:47:37.749Z,19.53
2022-10-05T09:50:33.223Z,19.62
2022-10-05T09:53:06.983Z,19.65
2022-10-05T09:55:39.333Z,19.91
2022-10-05T09:58:18.742Z,20.05
2022-10-05T10:00:55.675Z,19.58
2022-10-05T10:03:50.978Z,20.46
2022-10-05T10:06:23.980Z,20.72
2022-10-05T10:09:00.182Z,19.57
2022-10-05T10:11:34.167Z,20.58
2022-10-05T10:14:22.018Z,20.84
2022-10-05T10:16:53.799Z,20.86
2022-10-05T10:19:25.045Z,20.34
2022-10-05T10:22:12.597Z,21.05
2022-10-05T10:24:48.573Z,21.39
2022-10-05T10:27:18.205Z,21.42
2022-10-05T10:29:49.427Z,21.63
2022-10-05T10:32:21.234Z,20.83
2022-10-05T10:35:04.363Z,21.34
2022-10-05T10:37:37.656Z,20.12
2022-10-05T10:40:14.088Z,21.43
2022-10-05T10:42:51.404Z,21.09
2022-10-05T10:45:27.869Z,20.88
2022-10-05T10:48:05.162Z,20.83
2022-10-05T10:50:54.855Z,20.46
2022-10-05T10:53:41.996Z,21.60
2022-10-05T10:56:18.819Z,21.90
2022-10-05T10:59:02.393Z,22.10
2022-10-05T11:01:32.901Z,21.99
2022-10-05T11:04:13.531Z,22.05
2022-10-05T11:06:45.605Z,22.02
2022-10-05T11:09:20.092Z,22.83
2022-10-05T11:11:59.120Z,22.10
2022-10-05T11:14:41.579Z,21.88
2022-10-05T11:17:12.627Z,22.11
2022-10-05T11:20:03.266Z,21.86
2022-10-05T11:22:46.756Z,22.75
2022-10-05T11:25:20.925Z,22.79
2022-10-05T11:27:54.572Z,21.95
2022-10-05T11:30:32.784Z,22.89
2022-10-05T11:33:18.366Z,23.39
2022-10-05T11:35:54.368Z,23.82
2022-10-05T11:38:24.436Z,23.90
2022-10-05T11:41:16.495Z,22.79
2022-10-05T11:44:06.214Z,23.54
2022-10-05T11:46:50.310Z,23.17
2022-10-05T11:49:23.297Z,23.34
2022-10-05T11:51:52.835Z,23.92
2022-10-05T11:54:38.296Z,23.49
2022-10-05T11:57:17.679Z,24.19
2022-10-05T11:59:49.239Z,24.68
2022-10-05T12:02:37.911Z,24.65
2022-10-05T12:05:11.325Z,24.63
2022-10-05T12:07:40.926Z,25.23
2022-10-05T12:10:17.045Z,25.30
2022-10-05T12:12:59.858Z,24.85
2022-10-05T12:15:28.196Z,25.72
2022-10-05T12:17:59.240Z,26.43
2022-10-05T12:20:27.255Z,25.59
2022-10-05T12:22:56.946Z,26.42
2022-10-05T12:25:26.826Z,26.13
2022-10-05T12:27:55.235Z,26.20
2022-10-05T12:30:27.443Z,25.83
2022-10-05T12:33:02.192Z,26.01
2022-10-05T12:35:47.761Z,26.97
2022-10-05T12:38:18.649Z,25.86
2022-10-05T12:40:47.236Z,26.93
2022-10-05T12:43:18.541Z,26.77
2022-10-05T12:45:52.837Z,24.55
2022-10-05T12:48:26.291Z,25.79
2022-10-05T12:50:56.325Z,26.39
2022-10-05T12:53:26.180Z,27.02
2022-10-05T12:55:55.094Z,26.29
2022-10-05T12:58:25.790Z,26.16
2022-10-05T13:00:56.157Z,24.16
2022-10-05T13:03:27.368Z,25.14
2022-10-05T13:06:02.443Z,24.66
2022-10-05T13:08:31.893Z,24.43
2022-10-05T13:11:02.078Z,24.46
2022-10-05T13:13:38.646Z,24.40
2022-10-05T13:16:09.537Z,24.69
2022-10-05T13:18:42.195Z,25.39
2022-10-05T13:21:14.802Z,26.02
2022-10-05T13:23:45.813Z,25.57
2022-10-05T13:26:15.752Z,25.16
2022-10-05T13:28:58.579Z,25.54
2022-10-05T13:31:27.779Z,25.38
2022-10-05T13:34:04.852Z,25.59
2022-10-05T13:36:35.905Z,25.30
2022-10-05T13:39:06.631Z,25.29
2022-10-05T13:41:38.029Z,25.36
2022-10-05T13:44:19.203Z,25.70
2022-10-05T13:46:49.801Z,25.77
2022-10-05T13:49:29.470Z,26.00
2022-10-05T13:52:02.683Z,26.80
2022-10-05T13:54:36.091Z,26.48
2022-10-05T13:57:07.945Z,26.70
2022-10-05T13:59:36.807Z,26.40
2022-10-05T14:02:06.423Z,26.37
2022-10-05T14:04:45.613Z,26.55
2022-10-05T14:07:22.289Z,26.51
2022-10-05T14:09:50.486Z,26.67
2022-10-05T14:12:23.477Z,26.69
2022-10-05T14:14:55.271Z,27.26
2022-10-05T14:17:39.198Z,27.24
2022-10-05T14:20:23.050Z,27.06
2022-10-05T14:22:53.211Z,26.13
2022-10-05T14:25:21.053Z,26.21
2022-10-05T14:27:54.308Z,25.87
2022-10-05T14:30:28.203Z,25.85
2022-10-05T14:32:57.011Z,25.73
2022-10-05T14:35:26.446Z,25.57
2022-10-05T14:37:57.827Z,25.87
2022-10-05T14:40:27.327Z,24.83
2022-10-05T14:42:55.061Z,26.43
2022-10-05T14:45:23.784Z,26.24
2022-10-05T14:48:08.282Z,26.59
2022-10-05T14:50:50.889Z,26.83
2022-10-05T14:53:22.352Z,26.86
2022-10-05T14:56:06.407Z,27.01
2022-10-05T14:58:42.726Z,27.06
2022-10-05T15:01:15.110Z,27.13
2022-10-05T15:03:46.724Z,27.17
2022-10-05T15:06:17.829Z,27.49
2022-10-05T15:08:52.105Z,27.54
2022-10-05T15:11:23.144Z,27.86
2022-10-05T15:13:51.188Z,26.87
2022-10-05T15:16:20.395Z,27.46
2022-10-05T15:18:55.783Z,26.88
2022-10-05T15:21:30.607Z,26.68
2022-10-05T15:23:58.727Z,25.83
2022-10-05T15:26:33.487Z,24.66
2022-10-05T15:29:04.625Z,25.02
2022-10-05T15:31:37.304Z,24.58
2022-10-05T15:34:07.401Z,24.63
2022-10-05T15:36:38.398Z,23.90
2022-10-05T15:39:10.057Z,23.82
2022-10-05T15:41:53.948Z,23.77
2022-10-05T15:44:26.539Z,23.53
2022-10-05T15:46:56.790Z,24.16
2022-10-05T15:49:29.206Z,24.27
2022-10-05T15:51:59.681Z,23.87
2022-10-05T15:54:43.857Z,24.23
2022-10-05T15:57:20.529Z,24.23
2022-10-05T15:59:50.819Z,24.27
2022-10-05T16:02:22.203Z,23.96
2022-10-05T16:04:52.611Z,24.10
2022-10-05T16:07:41.466Z,23.79
2022-10-05T16:10:10.253Z,23.64
2022-10-05T16:12:42.718Z,23.74
2022-10-05T16:15:16.873Z,23.41
2022-10-05T16:17:55.265Z,23.14
2022-10-05T16:20:25.694Z,23.26
2022-10-05T16:22:59.970Z,23.96
2022-10-05T16:25:28.945Z,24.15
2022-10-05T16:28:05.468Z,24.67
2022-10-05T16:30:39.507Z,24.88
2022-10-05T16:33:12.858Z,24.94
2022-10-05T16:35:44.329Z,24.66
2022-10-05T16:38:18.071Z,24.68
2022-10-05T16:40:46.902Z,24.63
2022-10-05T16:43:18.898Z,24.63
2022-10-05T16:45:51.754Z,24.49
2022-10-05T16:48:22.457Z,24.35
2022-10-05T16:50:54.196Z,24.20
2022-10-05T16:53:27.276Z,23.81
2022-10-05T16:55:55.877Z,23.82
2022-10-05T16:58:27.655Z,23.95
2022-10-05T17:01:04.794Z,23.80
2022-10-05T17:03:40.126Z,23.69
2022-10-05T17:06:21.135Z,23.59
2022-10-05T17:09:03.762Z,23.40
2022-10-05T17:11:35.790Z,23.12
2022-10-05T17:14:07.909Z,23.09
2022-10-05T17:16:39.337Z,23.02
2022-10-05T17:19:12.338Z,22.92
2022-10-05T17:21:44.678Z,22.66
2022-10-05T17:24:25.848Z,22.68
2022-10-05T17:26:56.721Z,22.78
2022-10-05T17:29:28.026Z,22.67
2022-10-05T17:32:00.687Z,22.62
2022-10-05T17:34:28.541Z,22.55
2022-10-05T17:37:01.661Z,22.35
2022-10-05T17:39:44.150Z,22.32
2022-10-05T17:42:39.011Z,21.73
2022-10-05T17:45:21.475Z,21.56
2022-10-05T17:47:59.142Z,21.76
2022-10-05T17:50:55.673Z,21.31
2022-10-05T17:53:41.440Z,21.37
2022-10-05T17:56:09.629Z,21.38
2022-10-05T17:59:01.249Z,20.96
2022-10-05T18:01:32.320Z,21.09
2022-10-05T18:04:16.141Z,21.20
2022-10-05T18:06:48.111Z,20.48
2022-10-05T18:09:22.449Z,20.45
2022-10-05T18:12:03.916Z,20.49
2022-10-05T18:14:32.494Z,20.59
2022-10-05T18:17:01.689Z,20.49
2022-10-05T18:19:33.578Z,20.30
2022-10-05T18:22:04.505Z,20.59
2022-10-05T18:24:41.961Z,20.43
2022-10-05T18:27:30.492Z,20.83
2022-10-05T18:30:05.591Z,20.71
2022-10-05T18:32:40.145Z,20.73
2022-10-05T18:35:09.135Z,21.01
2022-10-05T18:37:42.383Z,20.97
2022-10-05T18:40:38.282Z,20.92
2022-10-05T18:43:09.621Z,21.03
2022-10-05T18:45:39.825Z,21.02
2022-10-05T18:48:14.092Z,20.72
2022-10-05T18:50:42.445Z,20.80
2022-10-05T18:53:18.524Z,20.72
2022-10-05T18:55:46.883Z,20.88
2022-10-05T18:58:18.063Z,20.52
2022-10-05T19:01:17.169Z,20.70
2022-10-05T19:03:49.208Z,20.62
2022-10-05T19:06:19.319Z,20.16
2022-10-05T19:08:50.802Z,20.31
2022-10-05T19:11:19.500Z,20.61
2022-10-05T19:13:49.878Z,20.48
2022-10-05T19:16:23.836Z,20.51
2022-10-05T19:18:55.039Z,20.56
2022-10-05T19:21:26.289Z,20.65
2022-10-05T19:24:04.482Z,20.44
2022-10-05T19:27:00.134Z,20.28
2022-10-05T19:29:40.118Z,20.08
2022-10-05T19:32:09.552Z,19.91
2022-10-05T19:34:48.123Z,19.83
2022-10-05T19:37:17.970Z,19.24
2022-10-05T19:39:49.339Z,19.39
2022-10-05T19:42:24.671Z,19.10
2022-10-05T19:44:56.927Z,18.79
2022-10-05T19:47:41.100Z,18.65
2022-10-05T19:50:20.321Z,18.83
2022-10-05T19:52:50.261Z,18.69
2022-10-05T19:55:26.648Z,18.94
2022-10-05T19:57:55.169Z,18.84
2022-10-05T20:00:25.087Z,18.70
2022-10-05T20:02:52.933Z,18.56
2022-10-05T20:05:20.903Z,18.49
2022-10-05T20:07:48.487Z,18.36
2022-10-05T20:10:23.038Z,18.47
2022-10-05T20:12:56.006Z,18.55
2022-10-05T20:15:41.575Z,18.34
2022-10-05T20:18:47.319Z,18.39
2022-10-05T20:21:32.057Z,18.60
2022-10-05T20:24:13.651Z,18.50
2022-10-05T20:26:59.191Z,18.25
2022-10-05T20:29:32.401Z,18.24
2022-10-05T20:32:00.252Z,18.12
2022-10-05T20:34:27.990Z,18.36
2022-10-05T20:36:57.146Z,18.18
2022-10-05T20:39:24.666Z,18.24
2022-10-05T20:41:52.244Z,18.29
2022-10-05T20:44:24.342Z,16.83
2022-10-05T20:46:58.684Z,18.36
2022-10-05T20:49:27.086Z,18.07
2022-10-05T20:51:58.123Z,18.21
2022-10-05T20:54:25.983Z,18.31
2022-10-05T20:56:55.262Z,18.27
2022-10-05T20:59:23.358Z,18.64
2022-10-05T21:01:50.967Z,18.72
2022-10-05T21:04:20.927Z,18.60
2022-10-05T21:06:48.574Z,18.55
2022-10-05T21:09:21.405Z,18.90
2022-10-05T21:11:55.530Z,18.86
2022-10-05T21:14:23.766Z,18.68
2022-10-05T21:16:52.650Z,18.61
2022-10-05T21:19:25.246Z,18.82
2022-10-05T21:21:54.278Z,18.76
2022-10-05T21:24:23.735Z,18.93
2022-10-05T21:26:51.608Z,18.63
2022-10-05T21:29:19.613Z,18.76
2022-10-05T21:31:47.288Z,18.99
2022-10-05T21:34:16.136Z,19.14
2022-10-05T21:36:46.303Z,18.43
2022-10-05T21:39:14.256Z,18.52
2022-10-05T21:41:42.020Z,18.61
2022-10-05T21:44:12.378Z,18.52
2022-10-05T21:46:40.466Z,18.47
2022-10-05T21:49:17.538Z,18.34
2022-10-05T21:51:49.149Z,18.10
2022-10-05T21:54:17.847Z,18.02
2022-10-05T21:56:46.181Z,18.22
2022-10-05T21:59:16.654Z,18.06
2022-10-05T22:01:44.655Z,17.92
2022-10-05T22:04:12.548Z,17.92
2022-10-05T22:06:43.394Z,17.70
2022-10-05T22:09:12.658Z,17.81
2022-10-05T22:11:40.548Z,17.67
2022-10-05T22:14:08.277Z,17.67
2022-10-05T22:16:42.157Z,17.87
2022-10-05T22:19:12.024Z,17.96
2022-10-05T22:21:42.164Z,18.00
2022-10-05T22:24:10.183Z,17.70
2022-10-05T22:26:40.220Z,17.53
2022-10-05T22:29:09.707Z,17.61
2022-10-05T22:42:59.723Z,17.57
2022-10-05T22:48:42.269Z,17.57
2022-10-05T22:51:12.696Z,17.84
2022-10-05T22:53:42.068Z,17.90
2022-10-05T22:56:13.344Z,17.69
2022-10-05T22:58:43.116Z,17.98
2022-10-05T23:01:11.849Z,17.81
2022-10-05T23:03:42.226Z,17.90
2022-10-05T23:06:13.496Z,17.95
2022-10-05T23:08:43.412Z,17.89
2022-10-05T23:11:13.140Z,17.86
2022-10-05T23:13:42.240Z,17.59
2022-10-05T23:16:12.239Z,17.74
2022-10-05T23:18:41.850Z,17.59
2022-10-05T23:21:13.380Z,17.59
2022-10-05T23:23:43.609Z,17.79
2022-10-05T23:26:11.858Z,17.75
2022-10-05T23:28:43.062Z,17.51
2022-10-05T23:31:12.187Z,17.57
2022-10-05T23:33:39.781Z,17.48
2022-10-05T23:36:08.431Z,17.76
2022-10-05T23:38:37.726Z,17.70
2022-10-05T23:41:05.673Z,17.91
2022-10-05T23:43:33.854Z,17.86
2022-10-05T23:46:01.748Z,17.59
2022-10-05T23:48:32.945Z,17.51
2022-10-05T23:51:00.806Z,17.59
2022-10-05T23:53:28.369Z,17.55
2022-10-05T23:55:55.945Z,17.35
2022-10-05T23:58:24.056Z,17.25
